createdAt,value
2023-07-31T00:00:18.085Z,153442.34
2023-07-31T00:02:19.891Z,153463.94
2023-07-31T00:04:21.370Z,153486.81
2023-07-31T00:06:22.794Z,153500.78
2023-07-31T00:08:24.539Z,153509.72
2023-07-31T00:10:26.000Z,153510.97
2023-07-31T00:12:27.478Z,153467.78
2023-07-31T00:14:29.082Z,153477.91
2023-07-31T00:16:30.627Z,153491.91
2023-07-31T00:18:32.113Z,153498.25
2023-07-31T00:20:33.922Z,153472.88
2023-07-31T00:22:35.354Z,153481.72
2023-07-31T00:24:36.815Z,153451.25
2023-07-31T00:26:38.818Z,153455.09
2023-07-31T00:28:40.572Z,153447.44
2023-07-31T00:30:42.019Z,153458.84
2023-07-31T00:32:43.727Z,153439.81
2023-07-31T00:34:45.191Z,153475.41
2023-07-31T00:36:46.624Z,153469.03
2023-07-31T00:38:48.577Z,153456.31
2023-07-31T00:40:50.116Z,153442.34
2023-07-31T00:42:51.569Z,153448.72
2023-07-31T00:44:53.180Z,153448.72
2023-07-31T00:46:55.408Z,153450.00
2023-07-31T00:48:57.780Z,153446.16
2023-07-31T00:50:59.488Z,153401.66
2023-07-31T00:53:01.485Z,153353.38
2023-07-31T00:55:02.984Z,153345.78
2023-07-31T00:57:04.801Z,153319.09
2023-07-31T00:59:06.227Z,153246.72
2023-07-31T01:01:07.711Z,153272.09
2023-07-31T01:03:09.495Z,153272.09
2023-07-31T01:05:11.117Z,153275.91
2023-07-31T01:07:21.346Z,153297.50
2023-07-31T01:09:45.899Z,153310.22
2023-07-31T01:12:01.193Z,153279.72
2023-07-31T01:14:02.932Z,153292.41
2023-07-31T01:16:04.591Z,153272.09
2023-07-31T01:18:06.030Z,153274.63
2023-07-31T01:20:12.997Z,153281.00
2023-07-31T01:22:34.088Z,153278.44
2023-07-31T01:24:49.291Z,153281.00
2023-07-31T01:26:58.470Z,153277.19
2023-07-31T01:29:09.651Z,153242.91
2023-07-31T01:31:16.163Z,153258.13
2023-07-31T01:33:18.076Z,153232.72
2023-07-31T01:35:20.082Z,153263.22
2023-07-31T01:37:21.559Z,153249.28
2023-07-31T01:39:23.008Z,153298.78
2023-07-31T01:41:24.599Z,153315.28
2023-07-31T01:43:26.123Z,153310.22
2023-07-31T01:45:27.804Z,153344.50
2023-07-31T01:47:29.350Z,153326.72
2023-07-31T01:49:30.823Z,153359.72
2023-07-31T01:51:32.321Z,153358.47
2023-07-31T01:53:33.933Z,153338.13
2023-07-31T01:55:35.569Z,153355.91
2023-07-31T01:57:37.883Z,153361.00
2023-07-31T01:59:39.461Z,153349.59
2023-07-31T02:01:41.114Z,153322.91
2023-07-31T02:03:42.662Z,153302.59
2023-07-31T02:05:49.001Z,153282.28
2023-07-31T02:07:52.695Z,153236.53
2023-07-31T02:09:54.038Z,153287.38
2023-07-31T02:11:55.689Z,153279.72
2023-07-31T02:13:57.389Z,153258.13
2023-07-31T02:15:58.877Z,153298.78
2023-07-31T02:18:00.670Z,153317.81
2023-07-31T02:20:02.742Z,153310.22
2023-07-31T02:22:04.560Z,153335.59
2023-07-31T02:24:06.023Z,153300.03
2023-07-31T02:26:07.459Z,153328.00
2023-07-31T02:28:08.904Z,153306.41
2023-07-31T02:30:10.958Z,153301.31
2023-07-31T02:32:12.554Z,153300.03
2023-07-31T02:34:14.565Z,153287.38
2023-07-31T02:36:15.992Z,153260.69
2023-07-31T02:38:17.576Z,153275.91
2023-07-31T02:40:19.006Z,153293.69
2023-07-31T02:42:20.511Z,153291.13
2023-07-31T02:44:22.993Z,153301.31
2023-07-31T02:46:24.459Z,153321.63
2023-07-31T02:48:26.443Z,153310.22
2023-07-31T02:50:28.030Z,153284.81
2023-07-31T02:52:29.510Z,153325.44
2023-07-31T02:54:31.026Z,153343.22
2023-07-31T02:56:32.727Z,153366.09
2023-07-31T02:58:34.183Z,153345.78
2023-07-31T03:00:35.769Z,153359.72
2023-07-31T03:02:37.630Z,153391.50
2023-07-31T03:04:39.139Z,153432.22
2023-07-31T03:06:40.933Z,153429.66
2023-07-31T03:08:42.792Z,153444.91
2023-07-31T03:10:44.206Z,153470.31
2023-07-31T03:12:48.393Z,153469.03
2023-07-31T03:14:49.891Z,153475.41
2023-07-31T03:16:51.320Z,153488.09
2023-07-31T03:18:52.848Z,153475.41
2023-07-31T03:20:54.977Z,153433.47
2023-07-31T03:22:56.397Z,153446.16
2023-07-31T03:24:58.055Z,153404.19
2023-07-31T03:26:59.655Z,153405.47
2023-07-31T03:29:01.108Z,153405.47
2023-07-31T03:31:02.886Z,153383.88
2023-07-31T03:33:04.546Z,153383.88
2023-07-31T03:35:06.477Z,153353.38
2023-07-31T03:37:08.092Z,153314.00
2023-07-31T03:39:09.588Z,153258.13
2023-07-31T03:41:11.030Z,153288.63
2023-07-31T03:43:13.127Z,153293.69
2023-07-31T03:45:14.908Z,153286.09
2023-07-31T03:47:16.514Z,153330.53
2023-07-31T03:49:17.997Z,153343.22
2023-07-31T03:51:19.548Z,153335.59
2023-07-31T03:53:21.083Z,153330.53
2023-07-31T03:55:22.615Z,153306.41
2023-07-31T03:57:24.233Z,153340.69
2023-07-31T03:59:25.674Z,153376.22
2023-07-31T04:01:27.695Z,153367.38
2023-07-31T04:03:29.370Z,153381.31
2023-07-31T04:05:32.620Z,153405.47
2023-07-31T04:07:34.359Z,153387.69
2023-07-31T04:09:35.981Z,153387.69
2023-07-31T04:11:37.416Z,153404.19
2023-07-31T04:13:39.278Z,153366.09
2023-07-31T04:15:40.812Z,153382.59
2023-07-31T04:17:42.313Z,153388.97
2023-07-31T04:19:43.836Z,153395.28
2023-07-31T04:21:45.581Z,153396.56
2023-07-31T04:23:47.046Z,153397.81
2023-07-31T04:25:48.661Z,153396.56
2023-07-31T04:27:50.402Z,153402.91
2023-07-31T04:29:51.841Z,153435.97
2023-07-31T04:31:53.371Z,153455.09
2023-07-31T04:33:54.824Z,153448.72
2023-07-31T04:35:56.262Z,153423.28
2023-07-31T04:37:57.944Z,153458.84
2023-07-31T04:39:59.548Z,153441.06
2023-07-31T04:42:00.981Z,153481.72
2023-07-31T04:44:02.847Z,153461.41
2023-07-31T04:46:04.501Z,153485.56
2023-07-31T04:48:06.087Z,153498.25
2023-07-31T04:50:08.212Z,153563.06
2023-07-31T04:52:09.746Z,153571.97
2023-07-31T04:54:11.217Z,153547.81
2023-07-31T04:56:12.844Z,153566.88
2023-07-31T04:58:14.356Z,153508.44
2023-07-31T05:00:15.994Z,153532.59
2023-07-31T05:02:17.690Z,153556.75
2023-07-31T05:04:19.732Z,153565.59
2023-07-31T05:06:21.178Z,153547.81
2023-07-31T05:08:22.997Z,153561.78
2023-07-31T05:10:24.634Z,153578.34
2023-07-31T05:12:26.250Z,153596.13
2023-07-31T05:14:28.646Z,153569.44
2023-07-31T05:16:30.323Z,153559.28
2023-07-31T05:18:32.378Z,153622.78
2023-07-31T05:20:34.045Z,153635.53
2023-07-31T05:22:35.640Z,153638.06
2023-07-31T05:24:37.064Z,153602.44
2023-07-31T05:26:38.724Z,153592.31
2023-07-31T05:28:41.717Z,153591.03
2023-07-31T05:30:43.189Z,153593.59
2023-07-31T05:32:45.244Z,153611.38
2023-07-31T05:34:46.878Z,153597.41
2023-07-31T05:36:48.325Z,153655.91
2023-07-31T05:38:50.411Z,153706.75
2023-07-31T05:40:52.021Z,153747.44
2023-07-31T05:42:53.484Z,153747.44
2023-07-31T05:44:55.321Z,153706.75
2023-07-31T05:46:56.858Z,153686.41
2023-07-31T05:48:58.293Z,153672.44
2023-07-31T05:50:59.835Z,153724.59
2023-07-31T05:53:01.376Z,153734.72
2023-07-31T05:55:03.265Z,153737.28
2023-07-31T05:57:05.176Z,153767.78
2023-07-31T05:59:06.741Z,153718.22
2023-07-31T06:01:08.225Z,153725.81
2023-07-31T06:03:10.229Z,153788.13
2023-07-31T06:05:12.218Z,153736.00
2023-07-31T06:07:13.678Z,153752.53
2023-07-31T06:09:15.292Z,153788.13
2023-07-31T06:11:16.938Z,153855.53
2023-07-31T06:13:18.402Z,153837.72
2023-07-31T06:15:21.016Z,153845.38
2023-07-31T06:17:22.646Z,153812.28
2023-07-31T06:19:24.138Z,153831.34
2023-07-31T06:21:25.914Z,153785.63
2023-07-31T06:23:27.663Z,153781.78
2023-07-31T06:25:29.204Z,153808.47
2023-07-31T06:27:30.765Z,153845.38
2023-07-31T06:29:32.580Z,153873.31
2023-07-31T06:31:34.102Z,153888.69
2023-07-31T06:33:35.860Z,153910.31
2023-07-31T06:35:37.456Z,153958.63
2023-07-31T06:37:38.922Z,153995.50
2023-07-31T06:39:40.837Z,154082.03
2023-07-31T06:41:43.557Z,154113.94
2023-07-31T06:43:44.984Z,154293.41
2023-07-31T06:45:46.615Z,154290.84
2023-07-31T06:47:48.369Z,154242.47
2023-07-31T06:49:49.807Z,154167.38
2023-07-31T06:51:51.448Z,154097.34
2023-07-31T06:53:52.960Z,154070.59
2023-07-31T06:55:54.410Z,154070.59
2023-07-31T06:57:56.779Z,154131.75
2023-07-31T06:59:58.304Z,154148.28
2023-07-31T07:01:59.749Z,154106.28
2023-07-31T07:04:01.430Z,154157.22
2023-07-31T07:06:03.102Z,154182.63
2023-07-31T07:08:04.752Z,154227.19
2023-07-31T07:10:06.852Z,154215.75
2023-07-31T07:12:08.973Z,154248.84
2023-07-31T07:14:10.442Z,154273.03
2023-07-31T07:16:12.160Z,154315.09
2023-07-31T07:18:13.757Z,154404.28
2023-07-31T07:20:15.204Z,154507.50
2023-07-31T07:22:16.866Z,154448.84
2023-07-31T07:24:18.438Z,154479.41
2023-07-31T07:26:20.949Z,154512.56
2023-07-31T07:28:22.599Z,154459.03
2023-07-31T07:30:25.609Z,154467.97
2023-07-31T07:32:27.147Z,154583.94
2023-07-31T07:34:29.483Z,154659.09
2023-07-31T07:36:30.996Z,154738.22
2023-07-31T07:38:32.432Z,154716.53
2023-07-31T07:40:34.627Z,154620.88
2023-07-31T07:42:36.152Z,154547.00
2023-07-31T07:44:37.586Z,154552.09
2023-07-31T07:46:39.656Z,154589.03
2023-07-31T07:48:41.320Z,154480.69
2023-07-31T07:50:42.780Z,154479.41
2023-07-31T07:52:44.520Z,154410.59
2023-07-31T07:54:45.960Z,154490.84
2023-07-31T07:56:47.396Z,154445.03
2023-07-31T07:58:52.463Z,154550.81
2023-07-31T08:00:53.982Z,154652.75
2023-07-31T08:02:55.583Z,154631.09
2023-07-31T08:04:57.392Z,154580.09
2023-07-31T08:06:58.829Z,154589.03
2023-07-31T08:09:00.982Z,154554.59
2023-07-31T08:11:03.137Z,154504.91
2023-07-31T08:13:04.591Z,154473.00
2023-07-31T08:15:06.873Z,154473.00
2023-07-31T08:17:08.623Z,154350.75
2023-07-31T08:19:10.208Z,154329.09
2023-07-31T08:21:11.886Z,154386.44
2023-07-31T08:23:13.785Z,154395.31
2023-07-31T08:25:15.323Z,154414.44
2023-07-31T08:27:16.758Z,154424.66
2023-07-31T08:29:18.610Z,154409.31
2023-07-31T08:31:20.428Z,154445.03
2023-07-31T08:33:21.948Z,154409.31
2023-07-31T08:35:25.329Z,154334.19
2023-07-31T08:37:26.772Z,154344.41
2023-07-31T08:39:28.219Z,154404.28
2023-07-31T08:41:30.059Z,154434.81
2023-07-31T08:43:32.047Z,154457.75
2023-07-31T08:45:33.675Z,154465.41
2023-07-31T08:47:36.175Z,154524.03
2023-07-31T08:49:39.540Z,154540.59
2023-07-31T08:53:43.741Z,154485.78
2023-07-31T08:55:45.946Z,154506.22
2023-07-31T08:57:48.110Z,154465.41
2023-07-31T08:59:50.559Z,154446.31
2023-07-31T09:01:55.864Z,154372.41
2023-07-31T09:04:00.660Z,154406.81
2023-07-31T09:06:03.749Z,154345.63
2023-07-31T09:08:06.111Z,154409.31
2023-07-31T09:10:07.911Z,154457.75
2023-07-31T09:12:09.755Z,154465.41
2023-07-31T09:14:11.718Z,154530.44
2023-07-31T09:16:13.411Z,154466.69
2023-07-31T09:18:15.080Z,154595.38
2023-07-31T09:20:21.597Z,154548.25
2023-07-31T09:22:36.817Z,154609.41
2023-07-31T09:24:38.717Z,154692.25
2023-07-31T09:26:40.640Z,154712.69
2023-07-31T09:28:42.461Z,154715.25
2023-07-31T09:30:49.205Z,154687.16
2023-07-31T09:32:52.300Z,154735.66
2023-07-31T09:34:53.767Z,154761.09
2023-07-31T09:36:55.399Z,154622.16
2023-07-31T09:38:56.972Z,154637.44
2023-07-31T09:40:59.816Z,154669.31
2023-07-31T09:43:06.405Z,154701.22
2023-07-31T09:45:09.305Z,154767.50
2023-07-31T09:47:26.634Z,154724.16
2023-07-31T09:49:30.150Z,154656.53
2023-07-31T09:51:31.626Z,154661.66
2023-07-31T09:53:33.056Z,154678.22
2023-07-31T09:55:35.374Z,154766.22
2023-07-31T09:57:42.134Z,154804.47
2023-07-31T09:59:43.675Z,154872.06
2023-07-31T10:01:46.918Z,154911.63
2023-07-31T10:03:48.886Z,154967.72
2023-07-31T10:05:52.136Z,155022.59
2023-07-31T10:07:56.496Z,154998.38
2023-07-31T10:10:04.109Z,154845.25
2023-07-31T10:12:12.160Z,154809.56
2023-07-31T10:14:14.712Z,154750.94
2023-07-31T10:16:17.053Z,154808.28
2023-07-31T10:18:19.669Z,154920.56
2023-07-31T10:20:22.119Z,154958.84
2023-07-31T10:22:24.689Z,154935.88
2023-07-31T10:24:26.780Z,155003.47
2023-07-31T10:26:28.444Z,155031.50
2023-07-31T10:28:30.534Z,154939.72
2023-07-31T10:30:34.714Z,154921.84
2023-07-31T10:32:37.151Z,154909.06
2023-07-31T10:34:41.343Z,155029.00
2023-07-31T10:36:42.807Z,154970.28
2023-07-31T10:38:44.578Z,154981.78
2023-07-31T10:40:46.140Z,154896.34
2023-07-31T10:42:49.802Z,154909.06
2023-07-31T10:44:51.295Z,154951.16
2023-07-31T10:46:56.252Z,154985.63
2023-07-31T10:49:02.839Z,154980.50
2023-07-31T10:51:09.653Z,154771.34
2023-07-31T10:53:24.367Z,154887.38
2023-07-31T10:55:43.263Z,155006.03
2023-07-31T10:57:48.224Z,154991.97
2023-07-31T10:59:50.786Z,155027.72
2023-07-31T11:01:57.069Z,155026.44
2023-07-31T11:03:58.904Z,154943.53
2023-07-31T11:06:02.793Z,155011.09
2023-07-31T11:08:14.883Z,155006.03
2023-07-31T11:10:20.617Z,155057.03
2023-07-31T11:12:22.352Z,155013.66
2023-07-31T11:14:24.218Z,154957.56
2023-07-31T11:16:26.759Z,154932.03
2023-07-31T11:18:28.578Z,155020.06
2023-07-31T11:20:33.855Z,155029.00
2023-07-31T11:22:36.621Z,155036.63
2023-07-31T11:24:38.130Z,155055.75
2023-07-31T11:26:39.915Z,155094.06
2023-07-31T11:28:42.026Z,155118.31
2023-07-31T11:30:45.068Z,155155.31
2023-07-31T11:32:46.883Z,155132.38
2023-07-31T11:34:55.649Z,155202.53
2023-07-31T11:36:57.746Z,155210.22
2023-07-31T11:39:09.333Z,155288.09
2023-07-31T11:41:10.927Z,155196.16
2023-07-31T11:43:12.421Z,155212.78
2023-07-31T11:45:14.013Z,155140.00
2023-07-31T11:47:17.312Z,155114.47
2023-07-31T11:49:18.770Z,155274.09
2023-07-31T11:51:22.265Z,155253.66
2023-07-31T11:53:28.037Z,155171.94
2023-07-31T11:55:29.992Z,155115.75
2023-07-31T11:57:31.822Z,155103.03
2023-07-31T11:59:33.834Z,154975.41
2023-07-31T12:01:35.423Z,154953.72
2023-07-31T12:03:37.323Z,154914.19
2023-07-31T12:05:39.281Z,154966.50
2023-07-31T12:07:51.853Z,154882.28
2023-07-31T12:09:57.179Z,154872.06
2023-07-31T12:11:58.812Z,154869.50
2023-07-31T12:14:00.260Z,154881.00
2023-07-31T12:16:03.381Z,154868.22
2023-07-31T12:18:06.951Z,154892.50
2023-07-31T12:20:09.677Z,154866.94
2023-07-31T12:22:15.826Z,154812.13
2023-07-31T12:24:19.897Z,154794.28
2023-07-31T12:26:21.406Z,154800.69
2023-07-31T12:28:26.006Z,154735.66
2023-07-31T12:30:33.413Z,154786.63
2023-07-31T12:32:34.886Z,154749.66
2023-07-31T12:34:43.792Z,154743.28
2023-07-31T12:36:45.573Z,154717.81
2023-07-31T12:38:47.096Z,154705.03
2023-07-31T12:40:48.553Z,154617.03
2023-07-31T12:42:50.250Z,154599.22
2023-07-31T12:44:51.688Z,154567.38
2023-07-31T12:46:53.133Z,154539.31
2023-07-31T12:48:55.366Z,154597.94
2023-07-31T12:50:56.908Z,154661.66
2023-07-31T12:52:58.987Z,154712.69
2023-07-31T12:55:00.886Z,154683.31
2023-07-31T12:57:02.328Z,154679.50
2023-07-31T12:59:03.796Z,154716.53
2023-07-31T13:01:05.715Z,154683.31
2023-07-31T13:03:07.293Z,154627.25
2023-07-31T13:05:09.646Z,154682.03
2023-07-31T13:07:11.422Z,154650.22
2023-07-31T13:09:13.040Z,154636.16
2023-07-31T13:11:14.520Z,154639.97
2023-07-31T13:13:16.269Z,154581.38
2023-07-31T13:15:17.793Z,154643.81
2023-07-31T13:17:19.477Z,154675.72
2023-07-31T13:19:21.091Z,154705.03
2023-07-31T13:21:22.519Z,154815.97
2023-07-31T13:23:23.956Z,154875.88
2023-07-31T13:25:25.715Z,154911.63
2023-07-31T13:27:27.165Z,154939.72
2023-07-31T13:29:28.606Z,154951.16
2023-07-31T13:31:30.450Z,154983.06
2023-07-31T13:33:38.001Z,154891.22
2023-07-31T13:35:40.869Z,154833.81
2023-07-31T13:37:42.775Z,154803.19
2023-07-31T13:39:44.473Z,154873.31
2023-07-31T13:41:45.961Z,154858.03
2023-07-31T13:43:47.754Z,154763.66
2023-07-31T13:45:49.197Z,154692.25
2023-07-31T13:47:51.349Z,154652.75
2023-07-31T13:49:53.021Z,154660.38
2023-07-31T13:51:54.454Z,154699.94
2023-07-31T13:53:55.886Z,154651.47
2023-07-31T13:55:57.503Z,154632.38
2023-07-31T13:57:58.958Z,154596.66
2023-07-31T14:00:00.429Z,154578.81
2023-07-31T14:02:03.933Z,154603.03
2023-07-31T14:04:05.459Z,154618.31
2023-07-31T14:06:07.127Z,154657.81
2023-07-31T14:08:08.738Z,154742.00
2023-07-31T14:10:10.572Z,154798.13
2023-07-31T14:12:12.061Z,154846.53
2023-07-31T14:14:13.666Z,154902.72
2023-07-31T14:16:15.258Z,154865.66
2023-07-31T14:18:16.949Z,154822.31
2023-07-31T14:20:19.094Z,154840.19
2023-07-31T14:22:31.208Z,154791.72
2023-07-31T14:24:33.061Z,154851.66
2023-07-31T14:26:34.574Z,154942.25
2023-07-31T14:28:36.150Z,154929.47
2023-07-31T14:30:37.696Z,154943.53
2023-07-31T14:32:39.217Z,154923.13
2023-07-31T14:34:40.905Z,154943.53
2023-07-31T14:36:42.515Z,154960.09
2023-07-31T14:38:44.280Z,154980.50
2023-07-31T14:40:45.926Z,154904.00
2023-07-31T14:42:47.444Z,154887.38
2023-07-31T14:44:48.947Z,154843.97
2023-07-31T14:46:50.521Z,154815.97
2023-07-31T14:48:51.972Z,154762.38
2023-07-31T14:50:53.650Z,154748.38
2023-07-31T14:52:55.397Z,154796.84
2023-07-31T14:54:56.841Z,154861.88
2023-07-31T14:56:58.364Z,154916.75
2023-07-31T14:59:00.191Z,154976.69
2023-07-31T15:01:01.654Z,155016.22
2023-07-31T15:03:04.101Z,155053.19
2023-07-31T15:05:06.373Z,154924.41
2023-07-31T15:07:07.809Z,154923.13
2023-07-31T15:09:09.486Z,155004.75
2023-07-31T15:11:11.135Z,154977.97
2023-07-31T15:13:12.602Z,154932.03
2023-07-31T15:15:16.139Z,154929.47
2023-07-31T15:17:17.609Z,154868.22
2023-07-31T15:19:19.026Z,154817.25
2023-07-31T15:21:20.573Z,154775.16
2023-07-31T15:23:22.057Z,154669.31
2023-07-31T15:25:23.506Z,154701.22
2023-07-31T15:27:25.147Z,154694.81
2023-07-31T15:29:26.746Z,154716.53
2023-07-31T15:31:28.605Z,154613.25
2023-07-31T15:33:30.195Z,154597.94
2023-07-31T15:35:31.857Z,154583.94
2023-07-31T15:37:33.372Z,154548.25
2023-07-31T15:39:34.949Z,154548.25
2023-07-31T15:41:37.673Z,154583.94
2023-07-31T15:43:39.109Z,154521.50
2023-07-31T15:45:40.658Z,154548.25
2023-07-31T15:47:42.260Z,154515.09
2023-07-31T15:49:43.690Z,154485.78
2023-07-31T15:51:45.483Z,154503.63
2023-07-31T15:53:47.316Z,154544.44
2023-07-31T15:55:48.752Z,154538.03
2023-07-31T15:57:50.380Z,154548.25
2023-07-31T15:59:51.960Z,154541.88
2023-07-31T16:01:53.617Z,154552.09
2023-07-31T16:03:55.288Z,154532.94
2023-07-31T16:05:56.870Z,154517.66
2023-07-31T16:07:58.396Z,154492.13
2023-07-31T16:10:00.058Z,154557.16
2023-07-31T16:12:01.671Z,154555.88
2023-07-31T16:14:03.092Z,154530.44
2023-07-31T16:16:04.954Z,154561.00
2023-07-31T16:18:06.640Z,154600.47
2023-07-31T16:20:08.589Z,154553.31
2023-07-31T16:22:10.261Z,154492.13
2023-07-31T16:24:11.717Z,154538.03
2023-07-31T16:26:13.156Z,154544.44
2023-07-31T16:28:14.726Z,154539.31
2023-07-31T16:30:16.355Z,154540.59
2023-07-31T16:32:17.971Z,154544.44
2023-07-31T16:34:19.773Z,154572.47
2023-07-31T16:36:21.374Z,154638.69
2023-07-31T16:38:22.798Z,154708.88
2023-07-31T16:40:24.352Z,154762.38
2023-07-31T16:42:25.932Z,154863.16
2023-07-31T16:44:27.366Z,154846.53
2023-07-31T16:46:29.019Z,154860.59
2023-07-31T16:48:30.536Z,154883.56
2023-07-31T16:50:31.966Z,154837.63
2023-07-31T16:52:33.512Z,154793.00
2023-07-31T16:54:35.343Z,154812.13
2023-07-31T16:56:56.956Z,154743.28
2023-07-31T16:58:58.418Z,154654.03
2023-07-31T17:01:00.218Z,154666.75
2023-07-31T17:03:02.563Z,154671.88
2023-07-31T17:05:04.545Z,154618.31
2023-07-31T17:07:06.249Z,154608.16
2023-07-31T17:09:07.845Z,154599.22
2023-07-31T17:11:09.668Z,154627.25
2023-07-31T17:13:11.220Z,154631.09
2023-07-31T17:15:12.670Z,154688.44
2023-07-31T17:17:14.413Z,154689.72
2023-07-31T17:19:16.116Z,154682.03
2023-07-31T17:21:17.534Z,154708.88
2023-07-31T17:23:19.134Z,154735.66
2023-07-31T17:25:20.676Z,154707.59
2023-07-31T17:27:22.116Z,154703.75
2023-07-31T17:29:29.604Z,154682.03
2023-07-31T17:31:31.628Z,154664.22
2023-07-31T17:33:33.136Z,154676.94
2023-07-31T17:35:35.215Z,154687.16
2023-07-31T17:37:36.707Z,154628.53
2023-07-31T17:39:38.136Z,154634.94
2023-07-31T17:41:39.776Z,154661.66
2023-07-31T17:43:41.330Z,154641.25
2023-07-31T17:45:42.758Z,154657.81
2023-07-31T17:47:45.268Z,154659.09
2023-07-31T17:49:47.024Z,154647.66
2023-07-31T17:51:48.473Z,154628.53
2023-07-31T17:53:50.080Z,154610.69
2023-07-31T17:55:52.216Z,154613.25
2023-07-31T17:57:53.672Z,154580.09
2023-07-31T17:59:55.281Z,154562.25
2023-07-31T18:01:57.057Z,154547.00
2023-07-31T18:03:58.620Z,154501.06
2023-07-31T18:06:00.386Z,154471.75
2023-07-31T18:08:01.984Z,154476.84
2023-07-31T18:10:03.587Z,154450.09
2023-07-31T18:12:05.733Z,154459.03
2023-07-31T18:14:08.631Z,154433.53
2023-07-31T18:16:10.328Z,154403.00
2023-07-31T18:18:12.085Z,154415.72
2023-07-31T18:20:13.737Z,154371.13
2023-07-31T18:22:15.182Z,154336.75
2023-07-31T18:24:16.861Z,154322.75
2023-07-31T18:26:18.387Z,154322.75
2023-07-31T18:28:19.867Z,154318.94
2023-07-31T18:30:21.472Z,154306.16
2023-07-31T18:32:23.054Z,154255.22
2023-07-31T18:34:24.493Z,154278.13
2023-07-31T18:36:26.069Z,154274.31
2023-07-31T18:38:27.588Z,154276.88
2023-07-31T18:40:29.006Z,154222.09
2023-07-31T18:42:30.471Z,154261.59
2023-07-31T18:44:31.997Z,154251.38
2023-07-31T18:46:33.548Z,154256.50
2023-07-31T18:48:35.164Z,154289.56
2023-07-31T18:50:41.697Z,154308.72
2023-07-31T18:52:43.178Z,154313.81
2023-07-31T18:54:44.734Z,154261.59
2023-07-31T18:56:46.327Z,154294.69
2023-07-31T18:58:47.982Z,154302.34
2023-07-31T19:00:49.409Z,154329.09
2023-07-31T19:02:50.976Z,154334.19
2023-07-31T19:04:52.525Z,154325.25
2023-07-31T19:06:54.221Z,154312.56
2023-07-31T19:08:55.683Z,154343.13
2023-07-31T19:10:57.209Z,154332.94
2023-07-31T19:12:58.751Z,154338.03
2023-07-31T19:15:00.328Z,154332.94
2023-07-31T19:17:01.801Z,154285.75
2023-07-31T19:19:03.308Z,154298.50
2023-07-31T19:21:04.902Z,154260.31
2023-07-31T19:23:06.316Z,154273.03
2023-07-31T19:25:08.418Z,154279.41
2023-07-31T19:27:09.976Z,154306.16
2023-07-31T19:29:11.404Z,154294.69
2023-07-31T19:31:12.843Z,154289.56
2023-07-31T19:33:14.531Z,154292.13
2023-07-31T19:35:16.403Z,154310.00
2023-07-31T19:37:17.935Z,154294.69
2023-07-31T19:39:19.523Z,154270.47
2023-07-31T19:41:21.028Z,154273.03
2023-07-31T19:43:22.679Z,154274.31
2023-07-31T19:45:24.465Z,154287.03
2023-07-31T19:47:25.993Z,154279.41
2023-07-31T19:49:28.991Z,154301.06
2023-07-31T19:51:30.517Z,154326.53
2023-07-31T19:53:31.965Z,154292.13
2023-07-31T19:55:33.571Z,154280.69
2023-07-31T19:57:35.112Z,154250.13
2023-07-31T19:59:36.544Z,154203.00
2023-07-31T20:01:38.239Z,154215.75
2023-07-31T20:03:39.824Z,154243.72
2023-07-31T20:05:41.294Z,154247.56
2023-07-31T20:07:42.973Z,154229.75
2023-07-31T20:09:44.446Z,154214.47
2023-07-31T20:11:45.864Z,154267.94
2023-07-31T20:13:47.524Z,154241.22
2023-07-31T20:15:49.091Z,154279.41
2023-07-31T20:17:51.332Z,154211.94
2023-07-31T20:19:52.973Z,154236.13
2023-07-31T20:21:54.597Z,154261.59
2023-07-31T20:23:56.036Z,154233.56
2023-07-31T20:25:57.574Z,154223.38
2023-07-31T20:27:59.331Z,154208.09
2023-07-31T20:30:00.832Z,154228.47
2023-07-31T20:32:02.413Z,154215.75
2023-07-31T20:34:04.014Z,154239.94
2023-07-31T20:36:05.557Z,154252.66
2023-07-31T20:38:07.093Z,154260.31
2023-07-31T20:40:09.310Z,154260.31
2023-07-31T20:42:10.776Z,154278.13
2023-07-31T20:44:12.406Z,154269.22
2023-07-31T20:46:14.050Z,154203.00
2023-07-31T20:48:15.624Z,154242.47
2023-07-31T20:50:17.294Z,154236.13
2023-07-31T20:52:18.809Z,154215.75
2023-07-31T20:54:20.235Z,154228.47
2023-07-31T20:56:21.827Z,154246.28
2023-07-31T20:58:23.394Z,154238.69
2023-07-31T21:00:24.970Z,154283.25
2023-07-31T21:02:26.761Z,154287.03
2023-07-31T21:04:28.500Z,154246.28
2023-07-31T21:06:29.985Z,154270.47
2023-07-31T21:08:31.626Z,154242.47
2023-07-31T21:10:38.531Z,154256.50
2023-07-31T21:12:40.059Z,154243.72
2023-07-31T21:14:44.712Z,154233.56
2023-07-31T21:16:46.270Z,154241.22
2023-07-31T21:18:47.725Z,154255.22
2023-07-31T21:20:49.454Z,154257.78
2023-07-31T21:22:51.061Z,154265.38
2023-07-31T21:24:53.160Z,154238.69
2023-07-31T21:26:54.696Z,154255.22
2023-07-31T21:28:56.346Z,154257.78
2023-07-31T21:30:57.797Z,154246.28
2023-07-31T21:32:59.290Z,154274.31
2023-07-31T21:35:00.805Z,154245.00
2023-07-31T21:37:02.224Z,154248.84
2023-07-31T21:39:03.821Z,154219.59
2023-07-31T21:41:05.465Z,154213.19
2023-07-31T21:43:06.905Z,154203.00
2023-07-31T21:45:08.668Z,154238.69
2023-07-31T21:47:10.300Z,154208.09
2023-07-31T21:49:11.800Z,154210.66
2023-07-31T21:51:13.489Z,154192.84
2023-07-31T21:53:14.961Z,154197.94
2023-07-31T21:55:16.412Z,154195.38
2023-07-31T21:57:17.942Z,154217.03
2023-07-31T21:59:19.450Z,154203.00
2023-07-31T22:01:20.932Z,154192.84
2023-07-31T22:03:22.611Z,154200.50
2023-07-31T22:05:24.172Z,154210.66
2023-07-31T22:07:25.636Z,154192.84
2023-07-31T22:09:27.274Z,154181.34
2023-07-31T22:11:28.790Z,154190.28
2023-07-31T22:13:31.422Z,154187.72
2023-07-31T22:15:32.995Z,154173.75
2023-07-31T22:17:34.660Z,154178.84
2023-07-31T22:19:36.160Z,154182.63
2023-07-31T22:21:37.793Z,154204.28
2023-07-31T22:23:39.473Z,154190.28
2023-07-31T22:25:40.956Z,154166.09
2023-07-31T22:27:42.584Z,154173.75
2023-07-31T22:29:44.330Z,154217.03
2023-07-31T22:31:45.824Z,154211.94
2023-07-31T22:33:47.433Z,154234.84
2023-07-31T22:35:50.005Z,154225.91
2023-07-31T22:37:51.436Z,154211.94
2023-07-31T22:39:53.064Z,154199.22
2023-07-31T22:41:54.902Z,154206.81
2023-07-31T22:43:56.367Z,154229.75
2023-07-31T22:45:58.038Z,154182.63
2023-07-31T22:47:59.672Z,154211.94
2023-07-31T22:50:01.200Z,154199.22
2023-07-31T22:52:02.649Z,154238.69
2023-07-31T22:54:04.143Z,154234.84
2023-07-31T22:56:06.807Z,154238.69
2023-07-31T22:58:08.655Z,154218.31
2023-07-31T23:00:10.632Z,154171.19
2023-07-31T23:02:12.131Z,154238.69
2023-07-31T23:04:13.860Z,154220.84
2023-07-31T23:06:15.358Z,154243.72
2023-07-31T23:08:16.807Z,154256.50
2023-07-31T23:10:18.551Z,154259.03
2023-07-31T23:12:19.990Z,154169.91
2023-07-31T23:14:21.410Z,154237.41
2023-07-31T23:16:23.236Z,154236.13